createdAt,value
2023-01-11T00:02:57.680Z,98999.91
2023-01-11T00:06:01.771Z,99013.19
2023-01-11T00:09:07.109Z,99018.25
2023-01-11T00:12:12.535Z,99020.97
2023-01-11T00:15:16.839Z,99018.38
2023-01-11T00:18:20.692Z,99025.63
2023-01-11T00:21:24.466Z,99022.22
2023-01-11T00:24:29.710Z,99021.13
2023-01-11T00:27:33.779Z,99029.31
2023-01-11T00:30:37.671Z,99042.00
2023-01-11T00:33:41.240Z,99036.41
2023-01-11T00:36:44.941Z,99046.25
2023-01-11T00:39:50.347Z,99047.38
2023-01-11T00:43:11.442Z,99050.34
2023-01-11T00:46:32.283Z,99051.72
2023-01-11T00:49:36.490Z,99045.59
2023-01-11T00:52:40.177Z,99050.91
2023-01-11T00:55:45.319Z,99044.06
2023-01-11T00:58:49.156Z,99059.25
2023-01-11T01:01:52.793Z,99052.81
2023-01-11T01:04:57.003Z,99055.41
2023-01-11T01:08:01.028Z,99060.34
2023-01-11T01:11:06.162Z,99051.31
2023-01-11T01:14:26.749Z,99051.72
2023-01-11T01:17:30.496Z,99054.19
2023-01-11T01:20:34.081Z,99053.91
2023-01-11T01:23:37.793Z,99047.34
2023-01-11T01:26:42.993Z,99055.28
2023-01-11T01:29:46.541Z,99057.72
2023-01-11T01:32:50.122Z,99049.81
2023-01-11T01:35:53.791Z,99060.63
2023-01-11T01:38:57.518Z,99049.25
2023-01-11T01:42:02.617Z,99047.91
2023-01-11T01:45:09.073Z,99053.63
2023-01-11T01:48:16.679Z,99055.00
2023-01-11T01:51:24.829Z,99056.63
2023-01-11T01:54:34.859Z,99054.44
2023-01-11T01:57:42.897Z,99062.25
2023-01-11T02:00:48.180Z,99056.38
2023-01-11T02:03:53.657Z,99059.38
2023-01-11T02:07:01.052Z,99062.66
2023-01-11T02:10:08.579Z,99057.59
2023-01-11T02:13:14.661Z,99058.56
2023-01-11T02:16:18.336Z,99062.66
2023-01-11T02:19:37.249Z,99061.56
2023-01-11T02:23:09.194Z,99063.88
2023-01-11T02:26:56.081Z,99071.41
2023-01-11T02:30:10.483Z,99072.78
2023-01-11T02:33:24.598Z,99079.59
2023-01-11T02:36:34.921Z,99085.06
2023-01-11T02:39:46.460Z,99075.09
2023-01-11T02:43:11.570Z,99077.69
2023-01-11T02:46:23.495Z,99070.84
2023-01-11T02:49:35.919Z,99084.13
2023-01-11T02:52:47.883Z,99084.53
2023-01-11T02:55:57.289Z,99071.13
2023-01-11T02:59:01.881Z,99074.13
2023-01-11T03:02:07.158Z,99078.66
2023-01-11T03:05:15.876Z,99075.91
2023-01-11T03:08:53.092Z,99077.41
2023-01-11T03:12:29.919Z,99073.03
2023-01-11T03:15:51.125Z,99078.66
2023-01-11T03:19:07.908Z,99080.28
2023-01-11T03:22:20.071Z,99084.22
2023-01-11T03:25:32.285Z,99072.38
2023-01-11T03:28:42.920Z,99075.50
2023-01-11T03:31:53.663Z,99079.06
2023-01-11T03:35:14.715Z,99082.75
2023-01-11T03:38:24.277Z,99084.50
2023-01-11T03:41:31.284Z,99085.91
2023-01-11T03:44:44.491Z,99087.38
2023-01-11T03:47:48.234Z,99088.75
2023-01-11T03:50:56.861Z,99096.41
2023-01-11T03:54:02.257Z,99097.22
2023-01-11T03:57:12.103Z,99108.03
2023-01-11T04:00:16.412Z,99118.56
2023-01-11T04:03:20.055Z,99124.97
2023-01-11T04:06:26.231Z,99131.09
2023-01-11T04:09:29.911Z,99139.72
2023-01-11T04:12:33.594Z,99150.78
2023-01-11T04:15:37.143Z,99146.84
2023-01-11T04:18:41.438Z,99152.53
2023-01-11T04:21:46.574Z,99153.66
2023-01-11T04:24:50.371Z,99162.81
2023-01-11T04:27:54.032Z,99157.34
2023-01-11T04:30:57.683Z,99156.13
2023-01-11T04:34:03.228Z,99157.59
2023-01-11T04:37:08.438Z,99152.69
2023-01-11T04:40:13.321Z,99156.53
2023-01-11T04:43:15.882Z,99164.84
2023-01-11T04:46:19.652Z,99177.34
2023-01-11T04:49:23.153Z,99178.72
2023-01-11T04:52:28.315Z,99184.19
2023-01-11T04:55:32.153Z,99193.09
2023-01-11T04:58:38.261Z,99191.06
2023-01-11T05:01:42.040Z,99195.06
2023-01-11T05:04:45.830Z,99204.25
2023-01-11T05:07:51.586Z,99199.59
2023-01-11T05:10:55.260Z,99195.50
2023-01-11T05:14:00.258Z,99198.56
2023-01-11T05:17:04.002Z,99192.03
2023-01-11T05:20:08.482Z,99194.88
2023-01-11T05:23:13.736Z,99198.88
2023-01-11T05:26:19.585Z,99200.19
2023-01-11T05:29:23.242Z,99205.88
2023-01-11T05:32:26.982Z,99207.06
2023-01-11T05:35:30.720Z,99215.72
2023-01-11T05:38:36.129Z,99215.38
2023-01-11T05:41:40.072Z,99209.59
2023-01-11T05:45:01.130Z,99219.38
2023-01-11T05:48:05.318Z,99214.28
2023-01-11T05:51:09.098Z,99225.59
2023-01-11T05:54:16.329Z,99230.09
2023-01-11T05:57:20.188Z,99239.03
2023-01-11T06:00:25.016Z,99250.78
2023-01-11T06:03:28.889Z,99249.84
2023-01-11T06:06:32.712Z,99244.94
2023-01-11T06:09:38.074Z,99247.81
2023-01-11T06:12:41.872Z,99255.81
2023-01-11T06:15:45.603Z,99255.75
2023-01-11T06:18:51.469Z,99258.72
2023-01-11T06:21:55.467Z,99264.78
2023-01-11T06:25:00.687Z,99261.06
2023-01-11T06:28:04.981Z,99265.91
2023-01-11T06:31:09.418Z,99271.88
2023-01-11T06:34:13.351Z,99267.25
2023-01-11T06:37:17.091Z,99271.44
2023-01-11T06:40:22.552Z,99271.59
2023-01-11T06:43:27.120Z,99278.06
2023-01-11T06:46:30.924Z,99275.00
2023-01-11T06:49:34.660Z,99283.06
2023-01-11T06:52:38.521Z,99291.00
2023-01-11T06:55:43.791Z,99294.94
2023-01-11T06:58:48.671Z,99298.22
2023-01-11T07:01:52.714Z,99308.91
2023-01-11T07:04:56.525Z,99313.41
2023-01-11T07:08:00.443Z,99322.59
2023-01-11T07:11:05.785Z,99330.38
2023-01-11T07:14:09.870Z,99332.63
2023-01-11T07:17:13.783Z,99332.44
2023-01-11T07:20:18.111Z,99326.84
2023-01-11T07:23:21.931Z,99329.44
2023-01-11T07:26:28.547Z,99326.72
2023-01-11T07:29:32.431Z,99330.97
2023-01-11T07:32:36.761Z,99334.69
2023-01-11T07:35:40.654Z,99338.47
2023-01-11T07:38:44.482Z,99353.31
2023-01-11T07:42:03.533Z,99358.53
2023-01-11T07:45:08.326Z,99370.47
2023-01-11T07:48:12.746Z,99375.25
2023-01-11T07:51:20.769Z,99380.03
2023-01-11T07:54:25.063Z,99384.97
2023-01-11T07:57:30.551Z,99383.19
2023-01-11T08:00:34.455Z,99386.88
2023-01-11T08:03:38.360Z,99398.13
2023-01-11T08:06:42.979Z,99392.53
2023-01-11T08:09:46.830Z,99397.47
2023-01-11T08:13:09.766Z,99399.66
2023-01-11T08:16:13.576Z,99398.94
2023-01-11T08:19:17.348Z,99405.72
2023-01-11T08:22:21.141Z,99403.50
2023-01-11T08:25:25.454Z,99398.31
2023-01-11T08:28:30.711Z,99401.31
2023-01-11T08:31:34.431Z,99405.69
2023-01-11T08:34:39.156Z,99415.22
2023-01-11T08:37:42.871Z,99427.81
2023-01-11T08:40:46.724Z,99428.63
2023-01-11T08:43:52.049Z,99424.44
2023-01-11T08:46:55.924Z,99431.66
2023-01-11T08:49:59.851Z,99438.63
2023-01-11T08:53:03.642Z,99445.19
2023-01-11T08:56:08.342Z,99443.13
2023-01-11T08:59:13.901Z,99441.84
2023-01-11T09:02:18.044Z,99447.47
2023-01-11T09:05:22.612Z,99450.22
2023-01-11T09:08:27.226Z,99457.94
2023-01-11T09:11:48.432Z,99454.38
2023-01-11T09:14:53.660Z,99444.53
2023-01-11T09:17:58.012Z,99454.00
2023-01-11T09:21:01.821Z,99457.81
2023-01-11T09:24:06.172Z,99452.34
2023-01-11T09:27:11.843Z,99442.97
2023-01-11T09:30:20.702Z,99436.63
2023-01-11T09:33:24.728Z,99429.94
2023-01-11T09:36:29.325Z,99425.91
2023-01-11T09:39:34.324Z,99429.22
2023-01-11T09:42:41.158Z,99429.81
2023-01-11T09:45:51.271Z,99438.06
2023-01-11T09:48:59.937Z,99433.31
2023-01-11T09:52:17.302Z,99444.41
2023-01-11T09:55:28.902Z,99446.28
2023-01-11T09:58:46.879Z,99448.44
2023-01-11T10:02:01.728Z,99458.50
2023-01-11T10:05:38.705Z,99457.06
2023-01-11T10:18:25.684Z,99457.06
2023-01-11T10:19:42.509Z,99454.56
2023-01-11T10:22:49.908Z,99458.81
2023-01-11T10:25:58.981Z,99449.63
2023-01-11T10:29:30.338Z,99441.44
2023-01-11T10:32:54.360Z,99450.22
2023-01-11T10:36:19.277Z,99455.03
2023-01-11T10:39:50.811Z,99449.22
2023-01-11T10:43:03.576Z,99442.31
2023-01-11T10:46:11.515Z,99445.59
2023-01-11T10:49:30.542Z,99447.47
2023-01-11T10:52:41.979Z,99450.75
2023-01-11T10:55:53.442Z,99448.94
2023-01-11T10:59:13.496Z,99448.06
2023-01-11T11:02:30.140Z,99443.63
2023-01-11T11:05:43.953Z,99446.63
2023-01-11T11:08:59.231Z,99441.16
2023-01-11T11:12:10.091Z,99435.25
2023-01-11T11:15:23.543Z,99436.72
2023-01-11T11:18:27.321Z,99433.28
2023-01-11T11:21:39.543Z,99435.38
2023-01-11T11:24:48.833Z,99439.63
2023-01-11T11:27:57.261Z,99431.88
2023-01-11T11:31:04.432Z,99434.03
2023-01-11T11:34:10.492Z,99428.28
2023-01-11T11:37:25.851Z,99436.50
2023-01-11T11:40:34.091Z,99434.53
2023-01-11T11:43:38.925Z,99437.22
2023-01-11T11:46:43.123Z,99444.78
2023-01-11T11:49:47.769Z,99438.50
2023-01-11T11:52:53.747Z,99434.09
2023-01-11T11:55:59.601Z,99443.28
2023-01-11T11:59:10.056Z,99440.97
2023-01-11T12:02:25.620Z,99440.81
2023-01-11T12:05:29.973Z,99432.38
2023-01-11T12:08:36.919Z,99430.69
2023-01-11T12:11:43.551Z,99439.97
2023-01-11T12:15:08.261Z,99429.47
2023-01-11T12:18:27.567Z,99435.34
2023-01-11T12:21:31.643Z,99427.44
2023-01-11T12:24:35.512Z,99422.91
2023-01-11T12:27:48.461Z,99433.38
2023-01-11T12:31:00.064Z,99432.53
2023-01-11T12:34:18.050Z,99434.19
2023-01-11T12:37:34.438Z,99430.00
2023-01-11T12:40:45.331Z,99434.75
2023-01-11T12:44:03.092Z,99429.50
2023-01-11T12:47:27.194Z,99445.47
2023-01-11T12:50:36.902Z,99441.50
2023-01-11T12:54:20.243Z,99446.72
2023-01-11T12:57:30.540Z,99453.38
2023-01-11T13:00:57.300Z,99451.94
2023-01-11T13:04:34.536Z,99455.97
2023-01-11T13:07:56.140Z,99447.31
2023-01-11T13:11:09.835Z,99457.63
2023-01-11T13:14:40.492Z,99466.50
2023-01-11T13:17:52.635Z,99472.66
2023-01-11T13:21:03.303Z,99470.88
2023-01-11T13:24:13.951Z,99470.72
2023-01-11T13:27:22.651Z,99476.94
2023-01-11T13:30:27.990Z,99480.09
2023-01-11T13:33:34.067Z,99479.66
2023-01-11T13:36:45.797Z,99490.97
2023-01-11T13:39:55.641Z,99492.81
2023-01-11T13:43:05.486Z,99491.13
2023-01-11T13:46:17.696Z,99492.81
2023-01-11T13:49:45.182Z,99492.78
2023-01-11T13:53:00.256Z,99491.69
2023-01-11T13:56:13.829Z,99500.53
2023-01-11T13:59:26.916Z,99499.78
2023-01-11T14:02:40.820Z,99504.50
2023-01-11T14:05:55.462Z,99502.53
2023-01-11T14:09:32.400Z,99504.47
2023-01-11T14:12:52.054Z,99506.09
2023-01-11T14:16:01.323Z,99514.53
2023-01-11T14:19:12.379Z,99506.41
2023-01-11T14:22:26.070Z,99515.41
2023-01-11T14:25:37.141Z,99519.59
2023-01-11T14:28:51.767Z,99518.16
2023-01-11T14:32:20.170Z,99519.94
2023-01-11T14:35:59.130Z,99528.53
2023-01-11T14:39:23.890Z,99535.84
2023-01-11T14:42:59.068Z,99535.91
2023-01-11T14:46:51.030Z,99533.41
2023-01-11T14:50:12.523Z,99544.31
2023-01-11T14:53:21.830Z,99533.69
2023-01-11T14:56:49.065Z,99535.00
2023-01-11T14:59:54.331Z,99535.44
2023-01-11T15:03:31.150Z,99537.09
2023-01-11T15:06:54.439Z,99545.81
2023-01-11T15:10:00.308Z,99547.53
2023-01-11T15:13:07.930Z,99549.66
2023-01-11T15:16:39.892Z,99539.94
2023-01-11T15:19:45.359Z,99559.44
2023-01-11T15:22:57.520Z,99552.97
2023-01-11T15:26:03.455Z,99553.38
2023-01-11T15:29:07.148Z,99549.53
2023-01-11T15:32:20.509Z,99550.78
2023-01-11T15:35:42.372Z,99550.00
2023-01-11T15:38:53.892Z,99545.81
2023-01-11T15:42:23.933Z,99550.31
2023-01-11T15:46:19.437Z,99555.13
2023-01-11T15:50:17.765Z,99557.91
2023-01-11T15:53:51.715Z,99557.88
2023-01-11T15:57:15.886Z,99572.34
2023-01-11T16:00:44.115Z,99566.44
2023-01-11T16:04:05.484Z,99573.00
2023-01-11T16:07:19.609Z,99569.03
2023-01-11T16:10:46.633Z,99584.81
2023-01-11T16:14:04.179Z,99588.94
2023-01-11T16:17:13.583Z,99584.78
2023-01-11T16:20:25.788Z,99588.78
2023-01-11T16:23:33.097Z,99586.88
2023-01-11T16:26:39.422Z,99597.59
2023-01-11T16:29:43.150Z,99591.66
2023-01-11T16:32:46.852Z,99599.59
2023-01-11T16:35:50.854Z,99604.56
2023-01-11T16:39:02.886Z,99604.84
2023-01-11T16:42:08.196Z,99611.97
2023-01-11T16:45:16.600Z,99620.06
2023-01-11T16:48:21.955Z,99615.00
2023-01-11T16:51:25.637Z,99618.56
2023-01-11T16:54:33.733Z,99619.81
2023-01-11T16:57:42.136Z,99624.88
2023-01-11T17:00:58.986Z,99627.66
2023-01-11T17:04:04.959Z,99629.97
2023-01-11T17:07:14.751Z,99629.25
2023-01-11T17:10:24.981Z,99631.84
2023-01-11T17:14:01.971Z,99632.56
2023-01-11T17:17:08.433Z,99637.78
2023-01-11T17:20:20.119Z,99640.78
2023-01-11T17:23:23.931Z,99649.81
2023-01-11T17:26:32.341Z,99649.25
2023-01-11T17:29:39.527Z,99655.84
2023-01-11T17:32:45.792Z,99647.31
2023-01-11T17:35:49.538Z,99657.75
2023-01-11T17:38:55.689Z,99652.53
2023-01-11T17:42:19.861Z,99653.34
2023-01-11T17:45:26.441Z,99658.00
2023-01-11T17:48:31.202Z,99658.97
2023-01-11T17:51:36.453Z,99655.13
2023-01-11T17:54:40.389Z,99658.56
2023-01-11T17:57:46.232Z,99659.34
2023-01-11T18:01:19.694Z,99658.31
2023-01-11T18:04:24.555Z,99663.03
2023-01-11T18:07:28.321Z,99656.88
2023-01-11T18:10:37.522Z,99663.88
2023-01-11T18:13:43.006Z,99674.41
2023-01-11T18:16:58.220Z,99677.75
2023-01-11T18:20:03.162Z,99688.44
2023-01-11T18:23:20.060Z,99688.13
2023-01-11T18:26:32.153Z,99695.78
2023-01-11T18:29:53.539Z,99694.34
2023-01-11T18:32:57.730Z,99697.81
2023-01-11T18:36:03.371Z,99707.56
2023-01-11T18:39:11.880Z,99699.06
2023-01-11T18:42:19.402Z,99698.88
2023-01-11T18:45:25.138Z,99706.13
2023-01-11T18:48:28.757Z,99709.16
2023-01-11T18:51:37.352Z,99713.81
2023-01-11T18:54:41.363Z,99718.13
2023-01-11T18:57:45.101Z,99717.69
2023-01-11T19:00:50.301Z,99727.69
2023-01-11T19:03:54.070Z,99732.78
2023-01-11T19:06:57.843Z,99728.22
2023-01-11T19:10:01.583Z,99726.38
2023-01-11T19:13:05.290Z,99730.63
2023-01-11T19:16:11.113Z,99721.28
2023-01-11T19:19:15.083Z,99736.53
2023-01-11T19:22:18.831Z,99731.50
2023-01-11T19:25:22.858Z,99741.22
2023-01-11T19:28:26.441Z,99729.00
2023-01-11T19:31:31.907Z,99736.31
2023-01-11T19:34:35.891Z,99729.81
2023-01-11T19:37:39.921Z,99729.75
2023-01-11T19:40:43.582Z,99727.84
2023-01-11T19:43:47.468Z,99726.25
2023-01-11T19:47:00.446Z,99718.94
2023-01-11T19:50:13.231Z,99723.47
2023-01-11T19:53:17.012Z,99731.47
2023-01-11T19:56:20.810Z,99737.03
2023-01-11T19:59:24.484Z,99739.41
2023-01-11T20:02:29.655Z,99742.34
2023-01-11T20:05:33.861Z,99745.25
2023-01-11T20:08:38.698Z,99750.25
2023-01-11T20:11:42.404Z,99745.94
2023-01-11T20:14:46.533Z,99754.19
2023-01-11T20:17:51.650Z,99745.63
2023-01-11T20:20:58.423Z,99745.19
2023-01-11T20:24:02.623Z,99741.19
2023-01-11T20:27:06.415Z,99745.69
2023-01-11T20:30:11.699Z,99753.31
2023-01-11T20:33:16.828Z,99755.81
2023-01-11T20:36:20.677Z,99758.78
2023-01-11T20:39:25.649Z,99755.84
2023-01-11T20:42:29.320Z,99754.88
2023-01-11T20:45:33.020Z,99747.22
2023-01-11T20:48:38.044Z,99742.44
2023-01-11T20:51:42.901Z,99740.88
2023-01-11T20:54:46.641Z,99746.13
2023-01-11T20:57:51.590Z,99748.72
2023-01-11T21:00:55.286Z,99751.13
2023-01-11T21:04:02.447Z,99754.44
2023-01-11T21:07:06.285Z,99750.72
2023-01-11T21:10:10.997Z,99746.34
2023-01-11T21:13:14.789Z,99750.56
2023-01-11T21:16:18.830Z,99756.06
2023-01-11T21:19:24.365Z,99756.53
2023-01-11T21:22:28.701Z,99769.28
2023-01-11T21:25:35.290Z,99778.28
2023-01-11T21:28:39.621Z,99775.84
2023-01-11T21:31:43.377Z,99779.59
2023-01-11T21:34:48.639Z,99786.00
2023-01-11T21:37:52.431Z,99786.41
2023-01-11T21:40:56.019Z,99783.13
2023-01-11T21:43:59.761Z,99777.56
2023-01-11T21:47:04.695Z,99781.53
2023-01-11T21:50:11.791Z,99784.81
2023-01-11T21:53:15.499Z,99781.16
2023-01-11T21:56:19.124Z,99771.66
2023-01-11T21:59:23.417Z,99756.38
2023-01-11T22:02:27.110Z,99753.41
2023-01-11T22:05:32.370Z,99753.75
2023-01-11T22:08:37.080Z,99756.59
2023-01-11T22:11:41.226Z,99754.50
2023-01-11T22:14:45.849Z,99748.41
2023-01-11T22:17:49.581Z,99747.06
2023-01-11T22:20:54.958Z,99743.84
2023-01-11T22:24:00.629Z,99745.50
2023-01-11T22:27:04.459Z,99736.66
2023-01-11T22:30:09.523Z,99746.78
2023-01-11T22:33:13.313Z,99733.16
2023-01-11T22:36:19.039Z,99737.94
2023-01-11T22:39:24.270Z,99749.13
2023-01-11T22:42:28.010Z,99740.94
2023-01-11T22:45:31.749Z,99745.22
2023-01-11T22:48:35.650Z,99733.38
2023-01-11T22:51:41.992Z,99734.25
2023-01-11T22:54:45.730Z,99736.25
2023-01-11T22:57:49.468Z,99737.59
2023-01-11T23:00:53.180Z,99729.25
2023-01-11T23:03:57.936Z,99731.47
2023-01-11T23:07:03.224Z,99750.22
2023-01-11T23:10:08.835Z,99751.13
2023-01-11T23:13:30.013Z,99741.25
2023-01-11T23:16:34.484Z,99737.09
2023-01-11T23:19:40.483Z,99729.59
2023-01-11T23:22:45.665Z,99721.94
2023-01-11T23:25:49.406Z,99716.69
2023-01-11T23:28:53.226Z,99718.66
2023-01-11T23:31:57.101Z,99710.94
2023-01-11T23:35:00.889Z,99705.09
2023-01-11T23:38:06.066Z,99694.31
2023-01-11T23:41:27.974Z,99691.47
2023-01-11T23:44:31.916Z,99699.25
2023-01-11T23:47:35.566Z,99694.38
2023-01-11T23:50:39.265Z,99693.19
2023-01-11T23:53:44.491Z,99694.53
2023-01-11T23:56:48.325Z,99695.25
2023-01-11T23:59:52.230Z,99689.41
